Tiempo atmosférico en la estación meteorológica de Cedrillas, Teruel (1380 m.)



Fecha
DESCASC
Temp. máxima en grados centígrados (hora)
DESCASC
Temp. mínima en grados centígrados (hora)
DESCASC
Temp. media en grados centígrados
DESCASC
Racha de viento máxima en m/sg (hora)
DESCASC
Velocidad máxima media en intervalos de 10 minutos(hora)
DESCASC
Precipitaciones diarias en mm
DESCASC
Precipitaciones de 00:00 a 06:00 en mm
DESCASC
Precipitaciones de 06:00 a 12:00 en mm
DESCASC
Precipitaciones de 12:00 a 18:00 en mm
DESCASC
Precipitaciones de 18:00 a 24:00 en mm
DESCASC
31-05-2020 23.3 (14:30) 9.8 (06:00) 16.5 11.67 (15:30) 8.61 (15:30) 0 0 0 0 0
30-05-2020 21.7 (15:40) 8.7 (06:50) 15.2 9.72 (18:10) 6.67 (20:30) 0 0 0 0 0
28-05-2020 19.5 (15:20) 5.8 (00:00) 12.7 10 (16:00) 6.39 (14:20) 0 0 0 0 0
27-05-2020 -- (--) -- (--) -- -- (--) -- (--) 0 0 0 0 0
26-05-2020 19.7 (16:50) 9.8 (00:00) 14.8 8.33 (15:50) 5.83 (16:10) 1.2 0 0 0.6 0.6
25-05-2020 17.8 (17:30) 9.5 (00:00) 13.6 8.89 (12:10) 5.28 (15:20) 2.8 0 2.2 0.6 0
24-05-2020 20.7 (16:40) 10.4 (05:00) 15.6 9.44 (19:30) 6.67 (19:30) 0.2 0 0.2 0 0
23-05-2020 24.3 (13:20) 11.4 (00:00) 17.8 10.28 (17:10) 6.67 (18:20) 14.6 0 0 11.4 3.2
22-05-2020 26.3 (16:40) 9.2 (00:00) 17.7 10.28 (20:50) 6.94 (19:50) 0 0 0 0 0
21-05-2020 25 (16:30) 7.9 (00:00) 16.5 7.78 (18:10) 5.56 (18:20) 0 0 0 0 0
20-05-2020 24 (18:10) 6 (00:00) 15 6.39 (13:10) 4.17 (16:50) 0 0 0 0 0
19-05-2020 22 (18:10) 3.8 (06:10) 12.9 7.78 (14:20) 4.17 (14:20) 0 0 0 0 0
18-05-2020 19 (17:10) 2.4 (00:00) 10.7 8.89 (19:00) 5.56 (19:10) 0 0 0 0 0
17-05-2020 16 (18:00) 5.1 (00:00) 10.5 8.33 (16:50) 5 (17:00) 0 0 0 0 0
16-05-2020 12.4 (14:10) 5.3 (00:00) 8.8 8.61 (15:30) 6.11 (15:30) 1.8 1.8 0 0 0
15-05-2020 12.5 (15:20) 4.5 (06:40) 8.5 7.78 (01:10) 4.72 (16:30) 4 0.2 0 1.6 2.2
14-05-2020 8.8 (12:20) 4.7 (00:00) 6.8 12.22 (16:00) 8.06 (16:00) 4 0 0.8 2.6 0.6
13-05-2020 13.8 (17:50) 4.6 (00:00) 9.2 9.72 (12:10) 6.11 (12:10) 0.6 0.6 0 0 0
12-05-2020 14.3 (15:10) 4.5 (06:20) 9.4 13.06 (22:40) 9.72 (23:10) 15 0 0 2 13
11-05-2020 15.3 (17:10) 5.8 (00:00) 10.6 13.89 (16:30) 9.44 (14:10) 0.6 0 0 0.2 0.4
10-05-2020 12.6 (16:00) 7.7 (00:00) 10.2 15.56 (15:50) 10.56 (16:00) 3.4 2.8 0.6 0 0
09-05-2020 19.8 (14:10) 8.9 (07:20) 14.3 11.67 (15:40) 7.22 (15:40) 5.6 0 0 0 5.6
08-05-2020 19.7 (17:50) 6.8 (00:00) 13.3 13.61 (14:00) 8.33 (14:00) 0 0 0 0 0
07-05-2020 18.5 (16:30) 7.1 (00:00) 12.8 11.11 (14:50) 7.78 (16:50) 0 0 0 0 0
06-05-2020 22.5 (16:30) 4.6 (00:00) 13.5 9.44 (20:00) 7.5 (20:10) 0 0 0 0 0
05-05-2020 21.4 (18:40) 9.3 (00:00) 15.3 11.11 (15:30) 7.22 (15:30) 0 0 0 0 0
04-05-2020 23.5 (16:00) 9.6 (00:00) 16.6 12.78 (16:50) 9.17 (14:50) 0 0 0 0 0
03-05-2020 24 (17:40) 6.3 (07:10) 15.2 9.72 (16:30) 6.94 (16:30) 0 0 0 0 0

Gráficas

Temp. máximas Temp. mínimas Temp. medias Precipitaciones Rachas de viento máximas Velocidades máximas media en intervalos de 10 minutos

Datos horarios

Fecha y hora oficial Temperatura (ºC) Velocidad del viento (km/h) Dirección del viento Racha (km/h) Dirección de racha Precipitación (mm) Presión (hPa) Tendencia (hPa) Humedad (%)
2020-06-01 23:00:00 13.4 10 Sur 18 Sur 0 -- -- 94
2020-06-01 22:00:00 14.2 10 Sur 25 Sur 0 -- -- 90
2020-06-01 21:00:00 15.6 19 Sur 30 Sur 0 -- -- 88
2020-06-01 20:00:00 17.5 19 Sur 29 Sur 0 -- -- 80
2020-06-01 19:00:00 19.3 18 Sudeste 28 Sudeste 0 -- -- 70
2020-06-01 18:00:00 19.8 18 Sudeste 31 Sudeste 0 -- -- 60
2020-06-01 17:00:00 20.6 15 Sudeste 22 Sudeste 0 -- -- 48
2020-06-01 16:00:00 21.5 5 Noroeste 20 Noroeste 0 -- -- 45
2020-06-01 15:00:00 20.7 10 Sudoeste 18 Sur 0 -- -- 47
2020-06-01 14:00:00 20.1 6 Oeste 19 Sudoeste 0 -- -- 47
2020-06-01 13:00:00 20 12 Sudoeste 23 Oeste 0 -- -- 50
2020-06-01 12:00:00 18.7 13 Oeste 25 Oeste 0 -- -- 51
2020-06-01 11:00:00 18.3 11 Sudoeste 24 Sudoeste 0 -- -- 53
2020-06-01 10:00:00 16.7 7 Sur 17 Sur 0 -- -- 67
2020-06-01 09:00:00 13.7 6 Sur 12 Sur 0 -- -- 84
2020-06-01 08:00:00 11 0 Calma 4 Sudeste 0 -- -- 93
2020-06-01 07:00:00 9.6 2 Noroeste 10 Sur 0 -- -- 91
2020-06-01 06:00:00 9.5 0 Calma 12 Sur 0 -- -- 90
2020-06-01 05:00:00 9.5 3 Sudoeste 10 Sur 0 -- -- 90
2020-06-01 04:00:00 9.9 6 Sur 11 Sur 0 -- -- 89
2020-06-01 03:00:00 10.3 7 Sur 17 Sur 0 -- -- 89
2020-06-01 02:00:00 11.4 16 Sur 24 Sur 0 -- -- 87
2020-06-01 01:00:00 11.8 10 Sur 14 Sur 0 -- -- 84
2020-06-01 00:00:00 12.2 0 Calma 12 Este 0 -- -- 86
2020-05-31 23:00:00 12.6 11 Este 18 Nordeste 0 -- -- 83
2020-05-31 22:00:00 13.3 10 Nordeste 22 Norte 0 -- -- 80
2020-05-31 21:00:00 14.4 15 Norte 31 Norte 0 -- -- 77
2020-05-31 20:00:00 17.1 14 Norte 34 Sudeste 0 -- -- 66
2020-05-31 19:00:00 19.1 24 Sudeste 34 Sur 0 -- -- 63
2020-05-31 18:00:00 20.1 18 Sudeste 30 Sudeste 0 -- -- 59
2020-05-31 17:00:00 21.8 13 Sur 21 Sudeste 0 -- -- 52
2020-05-31 16:00:00 18.9 5 Sudeste 42 Oeste 0 -- -- 49
2020-05-31 15:00:00 21.6 19 Sur 30 Sur 0 -- -- 44
2020-05-31 14:00:00 22.5 17 Sudeste 29 Sudeste 0 -- -- 40
2020-05-31 13:00:00 22.5 16 Sudoeste 32 Sudoeste 0 -- -- 40
2020-05-31 12:00:00 21.8 20 Sur 30 Sur 0 -- -- 39
2020-05-31 11:00:00 20.5 10 Sur 21 Sur 0 -- -- 46
2020-05-31 10:00:00 17.9 11 Sur 17 Sur 0 -- -- 52
2020-05-31 09:00:00 15.3 3 Sudeste 11 Sur 0 -- -- 65
2020-05-31 08:00:00 11.4 9 Sur 13 Sur 0 -- -- 73
2020-05-31 07:00:00 9.9 5 Sudoeste 14 Sur 0 -- -- 82
2020-05-31 06:00:00 9.8 7 Sudeste 14 Sur 0 -- -- 87
2020-05-31 05:00:00 10.6 9 Sur 13 Sur 0 -- -- 85
2020-05-31 04:00:00 10.8 5 Sur 17 Sur 0 -- -- 87
2020-05-31 03:00:00 10.7 7 Sur 15 Sur 0 -- -- 88
2020-05-31 02:00:00 10.4 12 Sur 16 Sur 0 -- -- 90
2020-05-31 01:00:00 10.4 6 Sur 15 Sur 0 -- -- 91
2020-05-31 00:00:00 11 9 Sur 18 Sur 0 -- -- 91
2020-05-30 23:00:00 12 7 Sur 15 Sur 0 -- -- 86
2020-05-30 22:00:00 13.3 10 Sur 24 Sudeste 0 -- -- 81
2020-05-30 21:00:00 15.7 17 Sur 32 Sur 0 -- -- 71
2020-05-30 20:00:00 18.3 20 Sur 31 Sudeste 0 -- -- 63
2020-05-30 19:00:00 20.3 18 Sur 35 Sudeste 0 -- -- 57
2020-05-30 18:00:00 21.2 18 Sudeste 34 Sur 0 -- -- 52
2020-05-30 17:00:00 21.7 18 Sur 30 Sudeste 0 -- -- 45
2020-05-30 16:00:00 21.6 17 Sur 27 Sur 0 -- -- 48
2020-05-30 15:00:00 21.5 10 Sur 29 Sudeste 0 -- -- 47
2020-05-30 14:00:00 20.5 14 Sur 26 Sudeste 0 -- -- 49
2020-05-30 13:00:00 19.6 16 Sur 27 Sur 0 -- -- 50
2020-05-30 12:00:00 18.8 13 Sur 22 Sudeste 0 -- -- 51
2020-05-30 11:00:00 17.9 15 Sur 22 Sur 0 -- -- 50
2020-05-30 10:00:00 16.1 13 Sudeste 19 Sudeste 0 -- -- 56
2020-05-30 09:00:00 14.6 9 Sur 17 Sur 0 -- -- 63
2020-05-30 08:00:00 11.6 6 Sur 10 Sur 0 -- -- 72
2020-05-30 07:00:00 8.8 3 Sudeste 8 Sur 0 -- -- 84
2020-05-30 06:00:00 9.3 5 Sudeste 13 Sudeste 0 -- -- 82
2020-05-30 05:00:00 10 7 Sudeste 17 Sur 0 -- -- 75
2020-05-30 04:00:00 10.8 10 Sudeste 21 Sudeste 0 -- -- 74
2020-05-30 03:00:00 11.2 11 Sudeste 22 Sur 0 -- -- 73
2020-05-30 02:00:00 11.3 11 Sudeste 24 Sur 0 -- -- 80
2020-05-30 01:00:00 11.7 15 Sur 21 Sur 0 -- -- 80
2020-05-30 00:00:00 12.6 12 Sur 20 Sur 0 -- -- 75
2020-05-29 23:00:00 13.5 15 Sur 21 Sudeste 0 -- -- 71
2020-05-29 22:00:00 14.5 17 Sur 24 Sur 0 -- -- 67
2020-05-29 21:00:00 17.4 17 Sur 27 Sur 0 -- -- 56
2020-05-29 20:00:00 18.9 18 Sur 30 Sudeste 0 -- -- 48
2020-05-29 19:00:00 19.9 22 Sur 31 Sudeste 0 -- -- 47
2020-05-29 18:00:00 20.6 21 Sur 28 Sur 0 -- -- 45
2020-05-29 17:00:00 23.4 8 Nordeste 16 Nordeste 0 -- -- 36
2020-05-29 16:00:00 23.4 8 Noroeste 17 Noroeste 0 -- -- 32
2020-05-29 15:00:00 22.7 10 Norte 19 Norte 0 -- -- 35
2020-05-29 14:00:00 21.6 6 Oeste 17 Nordeste 0 -- -- 34
2020-05-29 13:00:00 20.7 6 Oeste 20 Sur 0 -- -- 35
2020-05-29 12:00:00 20.5 7 Nordeste 18 Nordeste 0 -- -- 41
2020-05-29 11:00:00 19.1 9 Nordeste 17 Noroeste 0 -- -- 47
2020-05-29 10:00:00 16.4 3 Noroeste 6 Norte 0 -- -- 54
2020-05-29 09:00:00 10.9 0 Calma 4 Oeste 0 -- -- 71
2020-05-29 08:00:00 7.6 0 Calma 10 Este 0 -- -- 77
2020-05-29 07:00:00 4.7 7 Este 9 Este 0 -- -- 84
2020-05-29 06:00:00 4.9 6 Este 8 Este 0 -- -- 84
2020-05-29 05:00:00 5.8 0 Calma 8 Este 0 -- -- 77
2020-05-29 04:00:00 6.4 3 Nordeste 8 Este 0 -- -- 82
2020-05-29 03:00:00 6.7 4 Sudeste 8 Este 0 -- -- 86
2020-05-29 02:00:00 8.1 5 Este 8 Este 0 -- -- 84
2020-05-29 01:00:00 9.7 5 Este 9 Sudeste 0 -- -- 87
2020-05-29 00:00:00 10.4 6 Sur 15 Sur 0 -- -- 83
2020-05-28 23:00:00 11.7 9 Sur 18 Sur 0 -- -- 81
2020-05-28 22:00:00 12.9 12 Sur 26 Sudeste 0 -- -- 74
2020-05-28 21:00:00 15.6 15 Sur 29 Sur 0 -- -- 67
2020-05-28 20:00:00 17.5 19 Sudeste 30 Sudeste 0 -- -- 57
2020-05-28 19:00:00 18.9 17 Sur 32 Sur 0 -- -- 55
2020-05-28 18:00:00 19.4 17 Sur 34 Sudeste 0 -- -- 49
2020-05-28 17:00:00 19.2 18 Sudeste 32 Sudeste 0 -- -- 48
2020-05-28 16:00:00 19.1 22 Sudeste 36 Sudeste 0 -- -- 40
2020-05-28 15:00:00 19.2 20 Sur 34 Sur 0 -- -- 36
2020-05-28 14:00:00 18.8 17 Sudeste 33 Sur 0 -- -- 47
2020-05-28 13:00:00 18.1 19 Sudeste 30 Sudeste 0 -- -- 44
2020-05-28 12:00:00 17.3 14 Sudeste 24 Sur 0 -- -- 49
2020-05-28 11:00:00 16.1 16 Sur 26 Sudeste 0 -- -- 55
2020-05-28 10:00:00 14.5 9 Sur 14 Sur 0 -- -- 69
2020-05-28 09:00:00 11.7 2 Oeste 4 Noroeste 0 -- -- 78
2020-05-28 08:00:00 8.8 0 Calma 6 Nordeste 0 -- -- 88
2020-05-28 07:00:00 5.8 2 Norte 8 Sudeste 0 -- -- 91
2020-05-28 06:00:00 6.3 4 Nordeste 9 Sur 0 -- -- 91
2020-05-28 05:00:00 7.2 8 Sudoeste 11 Sudoeste 0 -- -- 88
2020-05-28 04:00:00 7.4 7 Sudoeste 10 Sudoeste 0 -- -- 86
2020-05-28 03:00:00 8.4 2 Sudoeste 7 Sudoeste 0 -- -- 83
2020-05-28 02:00:00 8.5 5 Sudoeste 8 Oeste 0 -- -- 88
2020-05-28 01:00:00 9.2 3 Oeste 14 Sur 0 -- -- 92
2020-05-28 00:00:00 9.9 8 Sudoeste 19 Sur 0 -- -- 88
2020-05-27 23:00:00 11.3 11 Sur 18 Sur 0 -- -- 74
2020-05-27 22:00:00 12.8 6 Sur 18 Sudeste 0 -- -- 62
2020-05-27 21:00:00 15.9 15 Sudeste 23 Sudeste 0 -- -- 52
2020-05-27 20:00:00 18.2 14 Este 22 Este 0 -- -- 54
2020-05-27 19:00:00 18.1 18 Este 25 Este 0 -- -- 57
2020-05-27 18:00:00 18.3 15 Este -- -- -- -- -- 58
2020-05-27 17:00:00 -- 13 Este -- -- -- -- -- --
2020-05-27 16:00:00 20.8 15 Sudeste 31 Este -- -- -- 48
2020-05-27 15:00:00 20.2 15 Sudeste 33 Sudeste -- -- -- 52
2020-05-27 14:00:00 19.7 17 Sur 29 Sur 0 -- -- 57
2020-05-27 13:00:00 18.8 15 Sudeste 27 Sudeste 0 -- -- 52
2020-05-27 12:00:00 18.3 15 Sudeste 25 Sur 0 -- -- 56
2020-05-27 11:00:00 17.3 15 Sudeste 30 Sudeste 0 -- -- 56
2020-05-27 10:00:00 16.2 12 Sudeste 24 Sudeste 0 -- -- 62
2020-05-27 09:00:00 13.1 3 Noroeste 9 Sudeste 0 -- -- 84
2020-05-27 08:00:00 9.9 0 Calma 11 Este 0 -- -- 92
2020-05-27 07:00:00 7.2 4 Este 12 Sudeste 0 -- -- 96
2020-05-27 06:00:00 7.5 5 Este 13 Este 0 -- -- 94
2020-05-27 05:00:00 7.7 6 Este 14 Este 0 -- -- 95
2020-05-27 04:00:00 7.9 4 Nordeste 12 Este 0 -- -- 95
2020-05-27 03:00:00 8.5 3 Este 12 Este 0 -- -- 95
2020-05-27 02:00:00 9.9 5 Este 8 Este 0 -- -- 91
2020-05-27 01:00:00 11.1 0 Calma 10 Sur 0 -- -- 94
2020-05-27 00:00:00 12.1 4 Sur 9 Sudeste 0 -- -- 94
2020-05-26 23:00:00 12.9 5 Sur 13 Sudeste 0 -- -- 91
2020-05-26 22:00:00 13.9 10 Sur 20 Sur 0 -- -- 88
2020-05-26 21:00:00 15.1 13 Sudeste 17 Sudeste 0.2 -- -- 86
2020-05-26 20:00:00 16 10 Sur 16 Sur 0.4 -- -- 81
2020-05-26 19:00:00 16.9 14 Sudeste 22 Sudeste 0 -- -- 82
2020-05-26 18:00:00 16.2 14 Sur 24 Sur 0.6 -- -- 82
2020-05-26 17:00:00 19 18 Sur 29 Sur 0 -- -- 65
2020-05-26 16:00:00 18.7 20 Sur 30 Sur 0 -- -- 65
2020-05-26 15:00:00 18.2 21 Sur 28 Sur 0 -- -- 63
2020-05-26 14:00:00 17.9 17 Sur 26 Sur 0 -- -- 65
2020-05-26 13:00:00 18.3 12 Sur 21 Sur 0 -- -- 58
2020-05-26 12:00:00 16.1 10 Sudoeste 15 Sur 0 -- -- 71
2020-05-26 11:00:00 15.4 10 Sur 15 Sur 0 -- -- 70
2020-05-26 10:00:00 16.2 9 Sudeste 15 Sudeste 0 -- -- 65
2020-05-26 09:00:00 13.6 0 Calma 4 Nordeste 0 -- -- 84
2020-05-26 08:00:00 12.7 4 Oeste 8 Nordeste 0 -- -- 91
2020-05-26 07:00:00 11.7 0 Calma 5 Norte 0 -- -- 96
2020-05-26 06:00:00 11.1 2 Nordeste 5 Nordeste 0 -- -- 97
2020-05-26 05:00:00 10.5 0 Calma 7 Sudoeste 0 -- -- 97
2020-05-26 04:00:00 10.3 2 Sudeste 9 Nordeste 0 -- -- 97
2020-05-26 03:00:00 10.2 4 Nordeste 6 Nordeste 0 -- -- 93
2020-05-26 02:00:00 10.7 0 Calma 13 Este 0 -- -- 93
2020-05-26 01:00:00 10.7 5 Este 10 Sudeste 0 -- -- 93
2020-05-26 00:00:00 11.6 3 Sudeste 6 Oeste 0 -- -- 90
2020-05-25 23:00:00 12.2 6 Sudeste 10 Este 0 -- -- 83
2020-05-25 22:00:00 12.5 5 Sudoeste 10 Oeste 0 -- -- 79
2020-05-25 21:00:00 15.5 5 Este 14 Sur 0 -- -- 69
2020-05-25 20:00:00 14.9 14 Sur 17 Sur 0 -- -- 67
2020-05-25 19:00:00 15.8 6 Sudoeste 23 Sur 0 -- -- 60
2020-05-25 18:00:00 17.1 14 Sur 22 Sur 0 -- -- 65
2020-05-25 17:00:00 17.1 13 Sur 26 Sudeste 0 -- -- 61
2020-05-25 16:00:00 16.4 16 Sudeste 27 Sur 0 -- -- 63
2020-05-25 15:00:00 14.4 19 Sudeste 27 Sur 0 -- -- 80
2020-05-25 14:00:00 13.4 18 Sudeste 24 Sudeste 0.2 -- -- 80
2020-05-25 13:00:00 11.7 19 Sur 32 Sudeste 0.4 -- -- 92
2020-05-25 12:00:00 11.6 15 Sur 27 Sudeste 1.6 -- -- 93
2020-05-25 11:00:00 12.9 14 Sur 23 Sur 0.6 -- -- 93
2020-05-25 10:00:00 12.6 5 Sudoeste 13 Sudeste 0 -- -- 93
2020-05-25 09:00:00 11.8 7 Sudeste 12 Sudeste 0 -- -- 95
2020-05-25 08:00:00 11.8 0 Calma 3 Sur 0 -- -- 97
2020-05-25 07:00:00 9.6 2 Sudeste 5 Este 0 -- -- 98
2020-05-25 06:00:00 9.9 2 Este 5 Sudeste 0 -- -- 98
2020-05-25 05:00:00 10.5 4 Sudoeste 6 Oeste 0 -- -- 98
2020-05-25 04:00:00 11.4 0 Calma 8 Sudeste 0 -- -- 99
2020-05-25 03:00:00 12.3 2 Oeste 6 Sudeste 0 -- -- 99
2020-05-25 02:00:00 12.4 4 Sur 15 Sur 0 -- -- 99
2020-05-25 01:00:00 12.6 6 Sur 15 Sur 0 -- -- 99
2020-05-25 00:00:00 12.9 9 Sur 22 Sur 0 -- -- 98
2020-05-24 23:00:00 13.1 10 Sur 15 Sur 0 -- -- 96
2020-05-24 22:00:00 13.9 7 Sur 18 Sur 0 -- -- 93
2020-05-24 21:00:00 14.9 15 Sur 31 Sur 0 -- -- 91
2020-05-24 20:00:00 16.8 21 Sur 34 Sur 0 -- -- 83
2020-05-24 19:00:00 18 17 Sur 27 Sur 0 -- -- 77
2020-05-24 18:00:00 18.8 13 Sur 26 Sur 0 -- -- 71
2020-05-24 17:00:00 19.7 16 Sur 28 Sur 0 -- -- 67
2020-05-24 16:00:00 20.2 14 Sur 28 Sur 0 -- -- 63
2020-05-24 15:00:00 18.8 17 Sur 30 Sur 0 -- -- 67
2020-05-24 14:00:00 18.2 17 Sur 32 Sur 0 -- -- 70
2020-05-24 13:00:00 17.7 21 Sudeste 29 Sudeste 0 -- -- 70
2020-05-24 12:00:00 16.9 16 Sudeste 29 Sur 0.2 -- -- 70
2020-05-24 11:00:00 15.7 14 Sur 27 Sur 0 -- -- 77
2020-05-24 10:00:00 13.8 15 Sur 26 Sur 0 -- -- 87
2020-05-24 09:00:00 11.9 14 Sudeste 24 Sur 0 -- -- 92
2020-05-24 08:00:00 11 12 Sudeste 21 Sudeste 0 -- -- 96
2020-05-24 07:00:00 10.6 13 Sur 21 Sur 0 -- -- 99
2020-05-24 06:00:00 10.8 7 Sur 19 Sur 0 -- -- 98
2020-05-24 05:00:00 10.4 15 Sur 20 Sur 0 -- -- 96
2020-05-24 04:00:00 11.5 11 Sur 18 Sur 0 -- -- 83
2020-05-24 03:00:00 12.6 10 Sur 18 Sudeste 0 -- -- 77
2020-05-24 02:00:00 13.7 7 Sudeste 16 Sur 0 -- -- 75
2020-05-24 01:00:00 13.9 4 Este 16 Sudeste 0 -- -- 77
2020-05-24 00:00:00 13.4 6 Este 14 Sudeste 0 -- -- 92
2020-05-23 23:00:00 14.3 2 Sur 18 Sur 0 -- -- 84
2020-05-23 22:00:00 15.6 3 Sudoeste 15 Sudeste 0 -- -- 86
2020-05-23 21:00:00 17 10 Sur 14 Sur 0 -- -- 83
2020-05-23 20:00:00 19.2 6 Nordeste 12 Este 0 -- -- 80
2020-05-23 19:00:00 17.5 4 Sudoeste 36 Este 3.2 -- -- 83
2020-05-23 18:00:00 16.8 14 Este 37 Nordeste 11.4 -- -- 85
2020-05-23 17:00:00 21.8 17 Nordeste 24 Nordeste 0 -- -- 63
2020-05-23 16:00:00 23.5 9 Sur 19 Sudoeste 0 -- -- 49
2020-05-23 15:00:00 24 8 Sur 17 Sur 0 -- -- 48
2020-05-23 14:00:00 23.6 6 Sudoeste 19 Sur 0 -- -- 49
2020-05-23 13:00:00 24.2 8 Sur 23 Sudoeste 0 -- -- 48
2020-05-23 12:00:00 23.1 16 Oeste 26 Sudoeste 0 -- -- 46
2020-05-23 11:00:00 22.7 8 Sudoeste 17 Sudeste 0 -- -- 48
2020-05-23 10:00:00 20.9 7 Sur 11 Sur 0 -- -- 52
2020-05-23 09:00:00 16.8 0 Calma 5 Sudoeste 0 -- -- 68
2020-05-23 08:00:00 13.4 0 Calma 8 Este 0 -- -- 78
2020-05-23 07:00:00 11.4 3 Este 9 Este 0 -- -- 71
2020-05-23 06:00:00 12.1 3 Este 9 Sur 0 -- -- 69
2020-05-23 05:00:00 13 0 Calma 4 Oeste 0 -- -- 64
2020-05-23 04:00:00 13.3 2 Sudeste 8 Sur 0 -- -- 66
2020-05-23 03:00:00 14.6 6 Sudeste 15 Sudeste 0 -- -- 58
2020-05-23 02:00:00 15.2 13 Sudeste 20 Sur 0 -- -- 60
2020-05-23 01:00:00 14.2 12 Sur 22 Sudeste 0 -- -- 77
2020-05-23 00:00:00 14.8 15 Sur 26 Sur 0 -- -- 80
2020-05-22 23:00:00 15.6 16 Sur 27 Sur 0 -- -- 71
2020-05-22 22:00:00 17.1 19 Sur 33 Sudeste 0 -- -- 62
2020-05-22 21:00:00 19.3 25 Sur 37 Sudeste 0 -- -- 52
2020-05-22 20:00:00 22 21 Sur 35 Sudeste 0 -- -- 52
2020-05-22 19:00:00 23.6 22 Sudeste 35 Sudeste 0 -- -- 49
2020-05-22 18:00:00 24.2 20 Sudeste 32 Sudeste 0 -- -- 46
2020-05-22 17:00:00 25.1 13 Sur 20 Sur 0 -- -- 38
2020-05-22 16:00:00 26.2 5 Sur 16 Oeste 0 -- -- 35
2020-05-22 15:00:00 25.6 8 Noroeste 25 Oeste 0 -- -- 34
2020-05-22 14:00:00 25.2 6 Oeste 15 Oeste 0 -- -- 35
2020-05-22 13:00:00 24.4 5 Sudoeste 13 Oeste 0 -- -- 28
2020-05-22 12:00:00 23.5 4 Sudoeste 12 Sudoeste 0 -- -- 29
2020-05-22 11:00:00 23.2 3 Norte 7 Este 0 -- -- 35
2020-05-22 10:00:00 20.5 2 Nordeste 4 Nordeste 0 -- -- 55
2020-05-22 09:00:00 16.5 2 Este 4 Este 0 -- -- 76
2020-05-22 08:00:00 11.7 0 Calma 8 Este 0 -- -- 85
2020-05-22 07:00:00 9.4 4 Este 5 Este 0 -- -- 90
2020-05-22 06:00:00 9.2 0 Calma 5 Este 0 -- -- 91
2020-05-22 05:00:00 9.5 5 Este 8 Este 0 -- -- 90
2020-05-22 04:00:00 9.8 5 Este 7 Este 0 -- -- 89
2020-05-22 03:00:00 10.6 0 Calma 6 Este 0 -- -- 86
2020-05-22 02:00:00 11.5 0 Calma 10 Este 0 -- -- 83
2020-05-22 01:00:00 12.3 6 Sudeste 10 Sudeste 0 -- -- 82
2020-05-22 00:00:00 14.6 3 Sudeste 8 Sudoeste 0 -- -- 72
2020-05-21 23:00:00 15.4 5 Sur 14 Sur 0 -- -- 70
2020-05-21 22:00:00 16.4 12 Sur 17 Sur 0 -- -- 67
2020-05-21 21:00:00 19.1 14 Sur 22 Sur 0 -- -- 58
2020-05-21 20:00:00 21.2 14 Sur 26 Sudeste 0 -- -- 51
2020-05-21 19:00:00 22.5 15 Sur 28 Sudeste 0 -- -- 46
2020-05-21 18:00:00 22.7 15 Sur 26 Sudoeste 0 -- -- 42
2020-05-21 17:00:00 24.9 9 Oeste 22 Oeste 0 -- -- 31
2020-05-21 16:00:00 24.6 8 Sur 22 Oeste 0 -- -- 28
2020-05-21 15:00:00 23.7 10 Sudoeste 24 Oeste 0 -- -- 31
2020-05-21 14:00:00 23.2 7 Sudoeste 17 Sudoeste 0 -- -- 32
2020-05-21 13:00:00 22.7 7 Sudoeste 20 Sudoeste 0 -- -- 34
2020-05-21 12:00:00 21.8 8 Sudoeste 18 Sudoeste 0 -- -- 36
2020-05-21 11:00:00 20.7 10 Sur 17 Sur 0 -- -- 48
2020-05-21 10:00:00 18.7 9 Sur 13 Sur 0 -- -- 60
2020-05-21 09:00:00 13.9 2 Noroeste 4 Oeste 0 -- -- 81
2020-05-21 08:00:00 10.7 4 Nordeste 6 Este 0 -- -- 86
2020-05-21 07:00:00 8.2 5 Este 6 Este 0 -- -- 94
2020-05-21 06:00:00 8.3 3 Este 10 Sudeste 0 -- -- 95
2020-05-21 05:00:00 9.2 8 Este 10 Este 0 -- -- 93
2020-05-21 04:00:00 9 0 Calma 6 Este 0 -- -- 91
2020-05-21 03:00:00 9.7 0 Calma 5 Este 0 -- -- 90
2020-05-21 02:00:00 10.5 6 Este 9 Este 0 -- -- 90
2020-05-21 01:00:00 11.2 3 Este 12 Este 0 -- -- 87
2020-05-21 00:00:00 12.4 5 Este 10 Sudeste 0 -- -- 83
2020-05-20 23:00:00 14.8 3 Este 8 Sur 0 -- -- 74
2020-05-20 22:00:00 16.8 8 Sur 15 Sudeste 0 -- -- 69
2020-05-20 21:00:00 21.1 6 Nordeste 15 Noroeste 0 -- -- 47
2020-05-20 20:00:00 23.6 7 Noroeste 21 Norte 0 -- -- 30
2020-05-20 19:00:00 23.8 11 Noroeste 21 Oeste 0 -- -- 25
2020-05-20 18:00:00 23.9 13 Noroeste 22 Noroeste 0 -- -- 26
2020-05-20 17:00:00 23.4 13 Noroeste 22 Noroeste 0 -- -- 27
2020-05-20 16:00:00 23.5 10 Noroeste 23 Noroeste 0 -- -- 27
2020-05-20 15:00:00 22.4 12 Norte 20 Noroeste 0 -- -- 28
2020-05-20 14:00:00 21.6 9 Noroeste 23 Oeste 0 -- -- 31
2020-05-20 13:00:00 20.3 13 Oeste 22 Oeste 0 -- -- 28
2020-05-20 12:00:00 19.9 12 Oeste 17 Oeste 0 -- -- 35
2020-05-20 11:00:00 19 6 Sudoeste 15 Sudoeste 0 -- -- 43
2020-05-20 10:00:00 16.9 3 Sur 7 Sur 0 -- -- 60
2020-05-20 09:00:00 12.1 0 Calma 5 Este 0 -- -- 79
2020-05-20 08:00:00 8.9 3 Este 5 Este 0 -- -- 85
2020-05-20 07:00:00 6.1 4 Este 7 Este 0 -- -- 92
2020-05-20 06:00:00 6 0 Calma 4 Nordeste 0 -- -- 89
2020-05-20 05:00:00 6.2 0 Calma 9 Este 0 -- -- 88
2020-05-20 04:00:00 7 0 Calma 7 Este 0 -- -- 87
2020-05-20 03:00:00 7.9 5 Este 6 Este 0 -- -- 83
2020-05-20 02:00:00 8.6 4 Este 13 Este 0 -- -- 85
2020-05-20 01:00:00 10 8 Este 10 Este 0 -- -- 83
2020-05-20 00:00:00 11.6 6 Este 9 Este 0 -- -- 77
2020-05-19 23:00:00 13.1 0 Calma 8 Nordeste 0 -- -- 74
2020-05-19 22:00:00 14.8 4 Nordeste 9 Norte 0 -- -- 69
2020-05-19 21:00:00 18 5 Norte 18 Norte 0 -- -- 56
2020-05-19 20:00:00 19.3 13 Norte 19 Noroeste 0 -- -- 50
2020-05-19 19:00:00 20.5 10 Norte 24 Nordeste 0 -- -- 43
2020-05-19 18:00:00 21.6 12 Norte 22 Norte 0 -- -- 37
2020-05-19 17:00:00 21.8 12 Noroeste 24 Norte 0 -- -- 33
2020-05-19 16:00:00 21.3 10 Norte 23 Noroeste 0 -- -- 33
2020-05-19 15:00:00 20.8 13 Norte 28 Noroeste 0 -- -- 41
2020-05-19 14:00:00 19.8 12 Norte 23 Norte 0 -- -- 40
2020-05-19 13:00:00 18.6 14 Norte 25 Nordeste 0 -- -- 48
2020-05-19 12:00:00 17.7 11 Nordeste 19 Norte 0 -- -- 53
2020-05-19 11:00:00 16.2 9 Norte 19 Norte 0 -- -- 61
2020-05-19 10:00:00 14.7 8 Norte 12 Norte 0 -- -- 64
2020-05-19 09:00:00 11.3 3 Norte 7 Este 0 -- -- 78
2020-05-19 08:00:00 7.8 5 Este 7 Este 0 -- -- 87
2020-05-19 07:00:00 5.1 4 Nordeste 6 Este 0 -- -- 92
2020-05-19 06:00:00 3.9 0 Calma 10 Este 0 -- -- 93
2020-05-19 05:00:00 5.1 7 Este 10 Este 0 -- -- 91
2020-05-19 04:00:00 5.2 0 Calma 12 Este 0 -- -- 92
2020-05-19 03:00:00 5.9 4 Este 9 Este 0 -- -- 91
2020-05-19 02:00:00 6.8 6 Este 11 Este 0 -- -- 90
2020-05-19 01:00:00 7.7 9 Este 11 Este 0 -- -- 86
2020-05-19 00:00:00 9.7 0 Calma 4 Este 0 -- -- 80
2020-05-18 23:00:00 10.8 0 Calma 7 Norte 0 -- -- 76
2020-05-18 22:00:00 12.4 3 Este 13 Norte 0 -- -- 70
2020-05-18 21:00:00 15.4 10 Norte 23 Norte 0 -- -- 55
2020-05-18 20:00:00 17.4 15 Norte 31 Noroeste 0 -- -- 46
2020-05-18 19:00:00 17.9 18 Norte 32 Noroeste 0 -- -- 45
2020-05-18 18:00:00 17.7 15 Noroeste 28 Norte 0 -- -- 50
2020-05-18 17:00:00 18.8 15 Norte 29 Norte 0 -- -- 41
2020-05-18 16:00:00 18.5 13 Norte 26 Noroeste 0 -- -- 41
2020-05-18 15:00:00 18.2 15 Norte 26 Noroeste 0 -- -- 33
2020-05-18 14:00:00 17.4 15 Norte 30 Norte 0 -- -- 40
2020-05-18 13:00:00 16.2 11 Norte 18 Nordeste 0 -- -- 46
2020-05-18 12:00:00 15.3 10 Norte 17 Noroeste 0 -- -- 48
2020-05-18 11:00:00 13.8 9 Noroeste 21 Norte 0 -- -- 51
2020-05-18 10:00:00 12.5 6 Noroeste 13 Noroeste 0 -- -- 57
2020-05-18 09:00:00 10.1 6 Nordeste 10 Este 0 -- -- 85
2020-05-18 08:00:00 4.2 0 Calma 8 Este 0 -- -- 96
2020-05-18 07:00:00 2.6 6 Este 10 Este 0 -- -- 98
2020-05-18 06:00:00 2.7 0 Calma 4 Este 0 -- -- 97
2020-05-18 05:00:00 3 3 Este 10 Este 0 -- -- 96
2020-05-18 04:00:00 3.5 2 Este 10 Este 0 -- -- 95
2020-05-18 03:00:00 4.6 5 Este 9 Este 0 -- -- 95
2020-05-18 02:00:00 5.5 5 Este 9 Este 0 -- -- 94
2020-05-18 01:00:00 6.4 4 Nordeste 6 Norte 0 -- -- 92
2020-05-18 00:00:00 7.8 3 Nordeste 9 Nordeste 0 -- -- 89
2020-05-17 23:00:00 8.9 5 Norte 7 Nordeste 0 -- -- 86
2020-05-17 22:00:00 10.4 3 Norte 9 Norte 0 -- -- 83
2020-05-17 21:00:00 12.8 7 Norte 18 Norte 0 -- -- 71
2020-05-17 20:00:00 13.6 11 Norte 22 Norte 0 -- -- 65
2020-05-17 19:00:00 14.7 14 Norte 23 Noroeste 0 -- -- 59
2020-05-17 18:00:00 16 9 Norte 27 Noroeste 0 -- -- 57
2020-05-17 17:00:00 15 18 Norte 30 Norte 0 -- -- 59
2020-05-17 16:00:00 15.2 15 Norte 29 Noroeste 0 -- -- 61
2020-05-17 15:00:00 13.8 15 Noroeste 26 Noroeste 0 -- -- 60
2020-05-17 14:00:00 13.8 8 Este 23 Este 0 -- -- 59
2020-05-17 13:00:00 13.2 9 Noroeste 17 Noroeste 0 -- -- 65
2020-05-17 12:00:00 12.2 10 Noroeste 17 Noroeste 0 -- -- 76
2020-05-17 11:00:00 9.7 11 Noroeste 18 Noroeste 0 -- -- 83
2020-05-17 10:00:00 7 9 Norte 17 Norte 0 -- -- 90
2020-05-17 09:00:00 5.7 7 Nordeste 19 Nordeste 0 -- -- 94
2020-05-17 08:00:00 5.3 10 Norte 17 Nordeste 0 -- -- 96
2020-05-17 07:00:00 5.3 11 Norte 19 Norte 0 -- -- 95
2020-05-17 06:00:00 5.4 11 Norte 18 Norte 0 -- -- 93
2020-05-17 05:00:00 5.7 12 Norte 20 Norte 0 -- -- 92
2020-05-17 04:00:00 5.8 10 Norte 18 Norte 0 -- -- 92
2020-05-17 03:00:00 6 8 Norte 22 Norte 0 -- -- 93
2020-05-17 02:00:00 6.4 14 Norte 26 Norte 0 -- -- 91
2020-05-17 01:00:00 7.1 15 Norte 24 Norte 0 -- -- 90
2020-05-17 00:00:00 7.6 10 Norte 20 Norte 0 -- -- 92
2020-05-16 23:00:00 8.1 13 Norte 20 Norte 0 -- -- 91
2020-05-16 22:00:00 8.4 11 Noroeste 26 Noroeste 0 -- -- 90
2020-05-16 21:00:00 8.5 12 Noroeste 21 Noroeste 0 -- -- 92
2020-05-16 20:00:00 8.8 10 Norte 21 Norte 0 -- -- 91
2020-05-16 19:00:00 9.3 15 Norte 23 Noroeste 0 -- -- 86
2020-05-16 18:00:00 10 13 Norte 28 Norte 0 -- -- 77
2020-05-16 17:00:00 10.9 19 Noroeste 30 Noroeste 0 -- -- 79
2020-05-16 16:00:00 10.3 15 Noroeste 31 Noroeste 0 -- -- 82
2020-05-16 15:00:00 10.4 14 Noroeste 28 Noroeste 0 -- -- 85
2020-05-16 14:00:00 11.8 14 Noroeste 22 Oeste 0 -- -- 80
2020-05-16 13:00:00 10.2 13 Norte 20 Norte 0 -- -- 84
2020-05-16 12:00:00 8.7 12 Norte 18 Norte 0 -- -- 89
2020-05-16 11:00:00 6.9 13 Norte 20 Norte 0 -- -- 96
2020-05-16 10:00:00 5.7 12 Norte 22 Nordeste 0 -- -- 100
2020-05-16 09:00:00 5.4 11 Norte 19 Norte 0 -- -- 100
2020-05-16 08:00:00 5.3 12 Norte 21 Norte 0 -- -- 100
2020-05-16 07:00:00 5.9 13 Norte 21 Norte 0 -- -- 100
2020-05-16 06:00:00 6.4 8 Norte 14 Norte 0 -- -- 99
2020-05-16 05:00:00 6.5 8 Norte 13 Noroeste 0.4 -- -- 99
2020-05-16 04:00:00 6.6 6 Norte 11 Norte 0.2 -- -- 99
2020-05-16 03:00:00 6.7 6 Norte 10 Norte 0.4 -- -- 98
2020-05-16 02:00:00 6.7 6 Norte 16 Nordeste 0.8 -- -- 96
2020-05-16 01:00:00 6.9 11 Norte 15 Norte 0 -- -- 97
2020-05-16 00:00:00 7.1 4 Noroeste 15 Este 1 -- -- 95
2020-05-15 23:00:00 7.4 6 Nordeste 15 Nordeste 0.2 -- -- 97
2020-05-15 22:00:00 8.5 3 Norte 12 Sudeste 0 -- -- 93
2020-05-15 21:00:00 8.8 9 Sudeste 18 Sudeste 0.2 -- -- 93
2020-05-15 20:00:00 9.1 9 Sudoeste 17 Sudeste 0.8 -- -- 93
2020-05-15 19:00:00 10.3 9 Sur 24 Sur 0 -- -- 85
2020-05-15 18:00:00 11.2 5 Noroeste 19 Norte 0.2 -- -- 83
2020-05-15 17:00:00 10.3 9 Norte 24 Norte 0 -- -- 88
2020-05-15 16:00:00 12.2 9 Sur 24 Sudeste 0 -- -- 74
2020-05-15 15:00:00 11.3 8 Sur 24 Sur 1.4 -- -- 85
2020-05-15 14:00:00 11.3 9 Norte 16 Norte 0 -- -- 77
2020-05-15 13:00:00 12 6 Norte 21 Noroeste 0 -- -- 73
2020-05-15 12:00:00 10.8 10 Norte 19 Nordeste 0 -- -- 75
2020-05-15 11:00:00 8.7 11 Norte 19 Norte 0 -- -- 83
2020-05-15 10:00:00 7.7 10 Norte 21 Norte 0 -- -- 87
2020-05-15 09:00:00 7.8 10 Norte 17 Norte 0 -- -- 87
2020-05-15 08:00:00 5.6 4 Norte 13 Norte 0 -- -- 97
2020-05-15 07:00:00 4.7 4 Norte 9 Noroeste 0 -- -- 98
2020-05-15 06:00:00 4.8 6 Norte 12 Norte 0 -- -- 97
2020-05-15 05:00:00 4.7 6 Norte 10 Norte 0.2 -- -- 96
2020-05-15 04:00:00 5.8 3 Este 17 Norte 0 -- -- 91
2020-05-15 03:00:00 5.8 5 Noroeste 17 Noroeste 0 -- -- 92
2020-05-15 02:00:00 5.4 9 Norte 28 Oeste 0 -- -- 92
2020-05-15 01:00:00 5.5 13 Noroeste 27 Oeste 0 -- -- 91
2020-05-15 00:00:00 5.4 12 Oeste 29 Oeste 0 -- -- 91
2020-05-14 23:00:00 5.5 14 Oeste 27 Oeste 0.2 -- -- 91
2020-05-14 22:00:00 5.7 13 Oeste 23 Oeste 0.2 -- -- 93
2020-05-14 21:00:00 6 9 Oeste 22 Oeste 0 -- -- 94
2020-05-14 20:00:00 6.5 13 Oeste 27 Oeste 0.2 -- -- 93
2020-05-14 19:00:00 6.9 19 Oeste 38 Oeste 0 -- -- 92
2020-05-14 18:00:00 7.2 21 Oeste 39 Oeste 0.2 -- -- 92
2020-05-14 17:00:00 7 26 Oeste 40 Oeste 0 -- -- 91
2020-05-14 16:00:00 6.8 29 Oeste 44 Oeste 0.6 -- -- 91
2020-05-14 15:00:00 7.5 13 Oeste 23 Oeste 1.2 -- -- 89
2020-05-14 14:00:00 8 4 Norte 19 Nordeste 0.6 -- -- 83
2020-05-14 13:00:00 8.5 12 Nordeste 20 Nordeste 0 -- -- 84
2020-05-14 12:00:00 8.1 8 Este 18 Nordeste 0.4 -- -- 81
2020-05-14 11:00:00 8 7 Sur 11 Sur 0.4 -- -- 96
2020-05-14 10:00:00 7.8 6 Sudoeste 10 Sudoeste 0 -- -- 91
2020-05-14 09:00:00 7.5 5 Sur 10 Sur 0 -- -- 92
2020-05-14 08:00:00 6.5 3 Noroeste 10 Sur 0 -- -- 97
2020-05-14 07:00:00 5.9 2 Nordeste 8 Nordeste 0 -- -- 99
2020-05-14 06:00:00 5.3 0 Calma 8 Sudeste 0 -- -- 98
2020-05-14 05:00:00 5.3 6 Sudeste 8 Sudeste 0 -- -- 98
2020-05-14 04:00:00 4.9 2 Sudoeste 13 Sur 0 -- -- 98
2020-05-14 03:00:00 5 2 Nordeste 10 Este 0 -- -- 95
2020-05-14 02:00:00 5.2 3 Nordeste 6 Sudoeste 0 -- -- 94
2020-05-14 01:00:00 5.4 4 Este 8 Oeste 0 -- -- 92
2020-05-14 00:00:00 5.7 3 Sudeste 9 Este 0 -- -- 88
2020-05-13 23:00:00 7.2 11 Este 16 Este 0 -- -- 85
2020-05-13 22:00:00 9 9 Este 12 Este 0 -- -- 81
2020-05-13 21:00:00 11 4 Oeste 15 Oeste 0 -- -- 64
2020-05-13 20:00:00 13 12 Oeste 18 Oeste 0 -- -- 59
2020-05-13 19:00:00 13.1 11 Oeste 18 Oeste 0 -- -- 60
2020-05-13 18:00:00 13 9 Oeste 17 Noroeste 0 -- -- 64
2020-05-13 17:00:00 12.6 9 Noroeste 20 Norte 0 -- -- 63
2020-05-13 16:00:00 11.8 10 Noroeste 22 Oeste 0 -- -- 70
2020-05-13 15:00:00 11.4 14 Oeste 26 Oeste 0 -- -- 66
2020-05-13 14:00:00 10.5 21 Oeste 29 Oeste 0 -- -- 73
2020-05-13 13:00:00 10.2 17 Sudoeste 35 Sudoeste 0 -- -- 74
2020-05-13 12:00:00 9.8 17 Oeste 27 Oeste 0 -- -- 76
2020-05-13 11:00:00 8.2 12 Oeste 25 Sudoeste 0 -- -- 80
2020-05-13 10:00:00 7.5 16 Sudoeste 25 Sudoeste 0 -- -- 85
2020-05-13 09:00:00 7.4 10 Sudoeste 26 Oeste 0 -- -- 86
2020-05-13 08:00:00 5.9 14 Sudoeste 25 Sudoeste 0 -- -- 89
2020-05-13 07:00:00 4.6 9 Sur 17 Sudoeste 0 -- -- 97
2020-05-13 06:00:00 5.3 13 Sudoeste 25 Sudoeste 0 -- -- 97
2020-05-13 05:00:00 5.4 10 Sur 26 Sur 0 -- -- 97
2020-05-13 04:00:00 5 12 Sudoeste 27 Sudoeste 0 -- -- 97
2020-05-13 03:00:00 5.1 10 Sudoeste 28 Sudoeste 0 -- -- 96
2020-05-13 02:00:00 5 12 Sur 18 Sur 0 -- -- 98
2020-05-13 01:00:00 5.8 13 Sudeste 21 Sudeste 0.6 -- -- 96
2020-05-13 00:00:00 5.4 10 Sur 47 Sudoeste 5.4 -- -- 97
2020-05-12 23:00:00 5.9 28 Sudoeste 47 Sudoeste 4.6 -- -- 96
2020-05-12 22:00:00 8.4 28 Sudeste 40 Sudeste 2.8 -- -- 94
2020-05-12 21:00:00 8.8 13 Sudeste 30 Sudeste 0 -- -- 92
2020-05-12 20:00:00 9.4 14 Sudeste 30 Sudeste 0 -- -- 84
2020-05-12 19:00:00 10.2 15 Sudeste 30 Sudeste 0.2 -- -- 87
2020-05-12 18:00:00 10 12 Sudeste 34 Sudeste 1 -- -- 92
2020-05-12 17:00:00 10.8 23 Sudeste 37 Sudeste 0.8 -- -- 88
2020-05-12 16:00:00 12.9 10 Norte 23 Sur 0 -- -- 72
2020-05-12 15:00:00 14.1 13 Sudeste 29 Sur 0 -- -- 67
2020-05-12 14:00:00 10.7 23 Sur 41 Sudeste 0.2 -- -- 82
2020-05-12 13:00:00 12.8 8 Noroeste 15 Nordeste 0 -- -- 70
2020-05-12 12:00:00 10.6 3 Norte 8 Nordeste 0 -- -- 84
2020-05-12 11:00:00 9.3 5 Oeste 7 Oeste 0 -- -- 90
2020-05-12 10:00:00 8.5 2 Nordeste 9 Este 0 -- -- 93
2020-05-12 09:00:00 7.7 7 Este 15 Sudeste 0 -- -- 94
2020-05-12 08:00:00 6.6 5 Sur 11 Este 0 -- -- 96
2020-05-12 07:00:00 5.1 5 Sudeste 8 Sudeste 0 -- -- 97
2020-05-12 06:00:00 4.7 6 Sudoeste 15 Este 0 -- -- 96
2020-05-12 05:00:00 5 3 Oeste 17 Este 0 -- -- 94
2020-05-12 04:00:00 6.3 12 Este 16 Este 0 -- -- 91
2020-05-12 03:00:00 5 3 Nordeste 9 Oeste 0 -- -- 94
2020-05-12 02:00:00 6.3 8 Sudoeste 12 Sudoeste 0 -- -- 91
2020-05-12 01:00:00 7.5 0 Calma 6 Sur 0 -- -- 86
2020-05-12 00:00:00 8 6 Sudeste 12 Este 0 -- -- 85
2020-05-11 23:00:00 8.7 3 Este 27 Oeste 0 -- -- 82
2020-05-11 22:00:00 9.3 4 Oeste 31 Oeste 0 -- -- 79
2020-05-11 21:00:00 9.9 16 Oeste 42 Oeste 0 -- -- 75
2020-05-11 20:00:00 11.5 14 Sudoeste 31 Sudoeste 0.2 -- -- 72
2020-05-11 19:00:00 11 21 Sudoeste 44 Sudoeste 0.2 -- -- 81
2020-05-11 18:00:00 12.4 22 Oeste 36 Oeste 0.2 -- -- 69
2020-05-11 17:00:00 15.1 28 Oeste 50 Oeste 0 -- -- 53
2020-05-11 16:00:00 14.7 28 Oeste 49 Sudoeste 0 -- -- 55
2020-05-11 15:00:00 13.7 30 Oeste 47 Oeste 0 -- -- 56
2020-05-11 14:00:00 12.2 28 Oeste 46 Oeste 0 -- -- 60
2020-05-11 13:00:00 12.2 25 Oeste 46 Oeste 0 -- -- 56
2020-05-11 12:00:00 11.1 24 Oeste 42 Oeste 0 -- -- 61
2020-05-11 11:00:00 10 23 Oeste 42 Sudoeste 0 -- -- 65
2020-05-11 10:00:00 9.7 29 Oeste 45 Oeste 0 -- -- 68
2020-05-11 09:00:00 9 13 Oeste 29 Sudoeste 0 -- -- 73
2020-05-11 08:00:00 6.9 8 Oeste 24 Oeste 0 -- -- 81
2020-05-11 07:00:00 6.1 7 Norte 15 Norte 0 -- -- 85
2020-05-11 06:00:00 6.1 8 Noroeste 30 Oeste 0 -- -- 84
2020-05-11 05:00:00 6 11 Oeste 25 Oeste 0 -- -- 85
2020-05-11 04:00:00 6.2 9 Oeste 20 Oeste 0 -- -- 84
2020-05-11 03:00:00 6.2 11 Sudoeste 21 Sudoeste 0 -- -- 87
2020-05-11 02:00:00 6.9 17 Oeste 27 Oeste 0 -- -- 84
2020-05-11 01:00:00 7.3 9 Oeste 22 Sudoeste 0 -- -- 81
2020-05-11 00:00:00 7.7 15 Sudoeste 28 Oeste 0 -- -- 78
2020-05-10 23:00:00 8.2 18 Oeste 28 Oeste 0 -- -- 76
2020-05-10 22:00:00 8.8 19 Oeste 37 Oeste 0 -- -- 71
2020-05-10 21:00:00 10.6 18 Oeste 27 Oeste 0 -- -- 64
2020-05-10 20:00:00 11.5 18 Oeste 33 Oeste 0 -- -- 61
2020-05-10 19:00:00 10.9 17 Noroeste 42 Noroeste 0 -- -- 64
2020-05-10 18:00:00 11.1 27 Noroeste 50 Noroeste 0 -- -- 70
2020-05-10 17:00:00 11.7 32 Oeste 56 Sudoeste 0 -- -- 66
2020-05-10 16:00:00 12.6 38 Oeste 56 Sudoeste 0 -- -- 60
2020-05-10 15:00:00 10.4 33 Oeste 48 Oeste 0 -- -- 65
2020-05-10 14:00:00 9.6 33 Oeste 45 Oeste 0 -- -- 73
2020-05-10 13:00:00 10.2 23 Oeste 39 Oeste 0 -- -- 77
2020-05-10 12:00:00 10.4 23 Oeste 38 Oeste 0 -- -- 71
2020-05-10 11:00:00 9.5 19 Oeste 34 Oeste 0 -- -- 83
2020-05-10 10:00:00 9.1 17 Oeste 25 Oeste 0.2 -- -- 88
2020-05-10 09:00:00 8.7 17 Oeste 31 Sudoeste 0.2 -- -- 93
2020-05-10 08:00:00 9 11 Sudoeste 17 Sudoeste 0.2 -- -- 94
2020-05-10 07:00:00 9.3 4 Sudoeste 10 Sudoeste 0 -- -- 96
2020-05-10 06:00:00 9.4 2 Sur 18 Sur 1.6 -- -- 98
2020-05-10 05:00:00 9.5 10 Sur 15 Sur 0.4 -- -- 98
2020-05-10 04:00:00 9.6 6 Sudeste 11 Sudeste 0.2 -- -- 97
2020-05-10 03:00:00 9.8 9 Sur 18 Sur 0.2 -- -- 96
2020-05-10 02:00:00 10 8 Sur 16 Sur 0.2 -- -- 97
2020-05-10 01:00:00 10.4 9 Sur 20 Sudeste 0.2 -- -- 96
2020-05-10 00:00:00 10.8 13 Sudeste 21 Sur 0 -- -- 96
2020-05-09 23:00:00 10.7 12 Sur 22 Sur 0 -- -- 99
2020-05-09 22:00:00 11.5 13 Sur 28 Sudeste 0 -- -- 92
2020-05-09 21:00:00 13 18 Sudeste 28 Sudeste 0 -- -- 91
2020-05-09 20:00:00 13.5 21 Sudeste 35 Sudeste 5.6 -- -- 93
2020-05-09 19:00:00 16.1 16 Sudeste 27 Sudeste 0 -- -- 76
2020-05-09 18:00:00 16.6 19 Sudeste 27 Sudeste 0 -- -- 74
2020-05-09 17:00:00 16.9 20 Sur 29 Sur 0 -- -- 74
2020-05-09 16:00:00 17.3 21 Sur 42 Sudeste 0 -- -- 70
2020-05-09 15:00:00 18.8 18 Sur 34 Sur 0 -- -- 59
2020-05-09 14:00:00 19.3 16 Sur 28 Sudoeste 0 -- -- 59
2020-05-09 13:00:00 19.2 16 Sudoeste 27 Sur 0 -- -- 54
2020-05-09 12:00:00 17.9 18 Sudoeste 25 Sudoeste 0 -- -- 47
2020-05-09 11:00:00 18.4 4 Nordeste 10 Sudoeste 0 -- -- 52
2020-05-09 10:00:00 16.9 4 Noroeste 15 Este 0 -- -- 58
2020-05-09 09:00:00 14.5 11 Este 14 Este 0 -- -- 73
2020-05-09 08:00:00 10.7 16 Este 23 Este 0 -- -- 88
2020-05-09 07:00:00 9.1 6 Sudoeste 21 Sur 0 -- -- 84
2020-05-09 06:00:00 9.3 18 Sur 24 Sur 0 -- -- 77
2020-05-09 05:00:00 9.6 12 Sur 15 Sur 0 -- -- 85
2020-05-09 04:00:00 9.7 6 Sur 23 Sur 0 -- -- 97
2020-05-09 03:00:00 9.6 18 Sur 25 Sur 0 -- -- 100
2020-05-09 02:00:00 9.9 14 Sur 26 Sur 0 -- -- 99
2020-05-09 01:00:00 10 17 Sur 23 Sur 0 -- -- 98
2020-05-09 00:00:00 11 9 Sur 18 Sur 0 -- -- 98
2020-05-08 23:00:00 11.6 6 Sur 19 Sur 0 -- -- 95
2020-05-08 22:00:00 12.2 14 Sur 27 Sur 0 -- -- 89
2020-05-08 21:00:00 13.9 18 Sur 32 Sudeste 0 -- -- 77
2020-05-08 20:00:00 16.3 26 Sur 40 Sur 0 -- -- 62
2020-05-08 19:00:00 18.7 23 Sur 36 Sur 0 -- -- 55
2020-05-08 18:00:00 19.6 20 Sur 31 Sur 0 -- -- 56
2020-05-08 17:00:00 19.1 18 Sur 35 Sur 0 -- -- 52
2020-05-08 16:00:00 18.5 18 Sudeste 41 Sur 0 -- -- 43
2020-05-08 15:00:00 18 18 Sudeste 46 Sur 0 -- -- 44
2020-05-08 14:00:00 18.7 30 Sur 49 Sur 0 -- -- 44
2020-05-08 13:00:00 18.7 17 Sudeste 36 Sur 0 -- -- 37
2020-05-08 12:00:00 15.7 19 Sur 38 Sur 0 -- -- 45
2020-05-08 11:00:00 16.1 14 Sudeste 23 Sudeste 0 -- -- 41
2020-05-08 10:00:00 13.7 10 Sudoeste 16 Sur 0 -- -- 64
2020-05-08 09:00:00 11.2 2 Norte 10 Sur 0 -- -- 76
2020-05-08 08:00:00 8.3 8 Sudeste 12 Sudeste 0 -- -- 88
2020-05-08 07:00:00 6.8 3 Noroeste 4 Noroeste 0 -- -- 88
2020-05-08 06:00:00 7.7 2 Sudoeste 5 Sur 0 -- -- 84
2020-05-08 05:00:00 8.1 5 Sudoeste 6 Sudoeste 0 -- -- 85
2020-05-08 04:00:00 8.5 3 Norte 7 Sudeste 0 -- -- 85
2020-05-08 03:00:00 8.9 5 Este 14 Sudeste 0 -- -- 86
2020-05-08 02:00:00 9.4 7 Sudeste 15 Sur 0 -- -- 85
2020-05-08 01:00:00 10.4 7 Sudeste 24 Sudeste 0 -- -- 88
2020-05-08 00:00:00 10.9 12 Sur 22 Sudeste 0 -- -- 92
2020-05-07 23:00:00 11.1 11 Sudeste 21 Sur 0 -- -- 80
2020-05-07 22:00:00 12.3 10 Sur 24 Sudeste 0 -- -- 72
2020-05-07 21:00:00 13.4 15 Sudeste 26 Sudeste 0 -- -- 63
2020-05-07 20:00:00 14.5 14 Sudeste 32 Sudeste 0 -- -- 59
2020-05-07 19:00:00 16 18 Sudeste 35 Sudeste 0 -- -- 56
2020-05-07 18:00:00 16.9 21 Sudeste 34 Sudeste 0 -- -- 61
2020-05-07 17:00:00 17.7 26 Sudeste 38 Sudeste 0 -- -- 59
2020-05-07 16:00:00 18.2 23 Sudeste 39 Sur 0 -- -- 51
2020-05-07 15:00:00 17.9 24 Sudeste 40 Sudeste 0 -- -- 53
2020-05-07 14:00:00 17.4 21 Sudeste 37 Sudeste 0 -- -- 58
2020-05-07 13:00:00 17.2 25 Sudeste 39 Sur 0 -- -- 59
2020-05-07 12:00:00 16.4 21 Sudeste 37 Sur 0 -- -- 60
2020-05-07 11:00:00 15.4 21 Sur 38 Sudeste 0 -- -- 60
2020-05-07 10:00:00 15.4 14 Sudeste 28 Sudeste 0 -- -- 65
2020-05-07 09:00:00 13 4 Sudeste 9 Sudoeste 0 -- -- 74
2020-05-07 08:00:00 8.2 2 Sudoeste 9 Este 0 -- -- 91
2020-05-07 07:00:00 7.7 3 Nordeste 5 Sudeste 0 -- -- 91
2020-05-07 06:00:00 8.2 2 Norte 6 Este 0 -- -- 91
2020-05-07 05:00:00 8.9 2 Este 5 Este 0 -- -- 91
2020-05-07 04:00:00 9.3 3 Nordeste 6 Nordeste 0 -- -- 92
2020-05-07 03:00:00 10.9 7 Sur 12 Sur 0 -- -- 90
2020-05-07 02:00:00 10.9 9 Sur 12 Sudeste 0 -- -- 94
2020-05-07 01:00:00 11.1 0 Calma 13 Sudeste 0 -- -- 94
2020-05-07 00:00:00 12.3 7 Sudeste 16 Sudeste 0 -- -- 91
2020-05-06 23:00:00 13 9 Sudeste 15 Sudeste 0 -- -- 90
2020-05-06 22:00:00 14.3 5 Sudeste 22 Sur 0 -- -- 86
2020-05-06 21:00:00 15.1 18 Sur 33 Sur 0 -- -- 81
2020-05-06 20:00:00 17.6 26 Sur 34 Sur 0 -- -- 71
2020-05-06 19:00:00 19.6 23 Sur 32 Sur 0 -- -- 62
2020-05-06 18:00:00 20.9 19 Sur 32 Sur 0 -- -- 58
2020-05-06 17:00:00 22.5 6 Sur 26 Sudoeste 0 -- -- 38
2020-05-06 16:00:00 22 10 Sur 22 Sudoeste 0 -- -- 40
2020-05-06 15:00:00 21.5 14 Sudeste 24 Sudeste 0 -- -- 40
2020-05-06 14:00:00 20.5 7 Norte 25 Sudoeste 0 -- -- 39
2020-05-06 13:00:00 19.4 13 Sudoeste 25 Sudoeste 0 -- -- 38
2020-05-06 12:00:00 18.5 8 Oeste 19 Sudoeste 0 -- -- 43
2020-05-06 11:00:00 17.4 13 Oeste 21 Oeste 0 -- -- 44
2020-05-06 10:00:00 15.9 4 Nordeste 8 Nordeste 0 -- -- 44
2020-05-06 09:00:00 11.1 0 Calma 7 Este 0 -- -- 71
2020-05-06 08:00:00 6.5 5 Este 10 Este 0 -- -- 80
2020-05-06 07:00:00 4.9 6 Este 8 Este 0 -- -- 80
2020-05-06 06:00:00 4.7 3 Norte 9 Este 0 -- -- 85
2020-05-06 05:00:00 5.5 4 Nordeste 10 Este 0 -- -- 82
2020-05-06 04:00:00 5.8 6 Nordeste 8 Nordeste 0 -- -- 83
2020-05-06 03:00:00 6.9 5 Este 10 Este 0 -- -- 78
2020-05-06 02:00:00 7.4 4 Este 8 Este 0 -- -- 74
2020-05-06 01:00:00 8.5 5 Este 7 Este 0 -- -- 69
2020-05-06 00:00:00 9.3 5 Este 10 Sudeste 0 -- -- 67
2020-05-05 23:00:00 11.1 4 Este 13 Este 0 -- -- 56
2020-05-05 22:00:00 13.5 9 Nordeste 14 Nordeste 0 -- -- 50
2020-05-05 21:00:00 16.7 6 Oeste 22 Sudoeste 0 -- -- 41
2020-05-05 20:00:00 19 12 Sudoeste 32 Sudoeste 0 -- -- 35
2020-05-05 19:00:00 21.2 19 Sudoeste 36 Sudoeste 0 -- -- 29
2020-05-05 18:00:00 21 23 Sudoeste 38 Sur 0 -- -- 30
2020-05-05 17:00:00 20.3 21 Sudoeste 34 Sudoeste 0 -- -- 41
2020-05-05 16:00:00 20.2 19 Sudoeste 40 Sur 0 -- -- 39
2020-05-05 15:00:00 19.5 21 Sudoeste 32 Sudoeste 0 -- -- 40
2020-05-05 14:00:00 20.5 19 Sudoeste 37 Sudoeste 0 -- -- 40
2020-05-05 13:00:00 19.9 20 Sudoeste 35 Sudoeste 0 -- -- 46
2020-05-05 12:00:00 19.2 19 Sudoeste 33 Sudoeste 0 -- -- 44
2020-05-05 11:00:00 17.5 14 Sudoeste 23 Sur 0 -- -- 51
2020-05-05 10:00:00 16.8 10 Sudoeste 15 Sudoeste 0 -- -- 51
2020-05-05 09:00:00 15.9 4 Nordeste 7 Nordeste 0 -- -- 61
2020-05-05 08:00:00 12.1 0 Calma 16 Sudeste 0 -- -- 71
2020-05-05 07:00:00 13 12 Sur 24 Sur 0 -- -- 67
2020-05-05 06:00:00 12.8 12 Sur 19 Sur 0 -- -- 67
2020-05-05 05:00:00 13.3 11 Sur 18 Sur 0 -- -- 67
2020-05-05 04:00:00 13.5 15 Sur 19 Sur 0 -- -- 65
2020-05-05 03:00:00 13.1 16 Sur 21 Sur 0 -- -- 64
2020-05-05 02:00:00 13.2 16 Sur 21 Sur 0 -- -- 66
2020-05-05 01:00:00 13.9 17 Sur 23 Sur 0 -- -- 65
2020-05-05 00:00:00 13.9 15 Sur 24 Sur 0 -- -- 69
2020-05-04 23:00:00 14.7 17 Sur 26 Sur 0 -- -- 72
2020-05-04 22:00:00 15.9 20 Sur 28 Sur 0 -- -- 66
2020-05-04 21:00:00 17.6 14 Sur 33 Sur 0 -- -- 58
2020-05-04 20:00:00 19.6 18 Sur 38 Sudeste 0 -- -- 55
2020-05-04 19:00:00 20.8 22 Sudeste 43 Sudeste 0 -- -- 42
2020-05-04 18:00:00 22.2 25 Sudeste 39 Sudeste 0 -- -- 39
2020-05-04 17:00:00 22.6 26 Sudeste 46 Sudeste 0 -- -- 39
2020-05-04 16:00:00 23.5 25 Sudeste 45 Sur 0 -- -- 35
2020-05-04 15:00:00 22.8 30 Sudeste 45 Sudeste 0 -- -- 35
2020-05-04 14:00:00 22.8 29 Sudeste 41 Sudeste 0 -- -- 35
2020-05-04 13:00:00 21.8 22 Sur 42 Sur 0 -- -- 39
2020-05-04 12:00:00 21.1 28 Sudeste 39 Sur 0 -- -- 39
2020-05-04 11:00:00 20.4 14 Sur 30 Sudeste 0 -- -- 50
2020-05-04 10:00:00 18.9 14 Sur 20 Sur 0 -- -- 54
2020-05-04 09:00:00 14 4 Sudeste 9 Sudeste 0 -- -- 78
2020-05-04 08:00:00 11.3 3 Este 10 Este 0 -- -- 81
2020-05-04 07:00:00 10.4 7 Este 12 Este 0 -- -- 78
2020-05-04 06:00:00 10.6 3 Este 8 Este 0 -- -- 79
2020-05-04 05:00:00 10.8 5 Este 8 Este 0 -- -- 80
2020-05-04 04:00:00 11 4 Sudeste 7 Sudeste 0 -- -- 81
2020-05-04 03:00:00 11.2 4 Este 6 Sur 0 -- -- 82
2020-05-04 02:00:00 12 0 Calma 17 Sur 0 -- -- 82
2020-05-04 01:00:00 12.3 9 Sur 17 Sur 0 -- -- 84
2020-05-04 00:00:00 12.8 13 Sur 20 Sur 0 -- -- 85
2020-05-03 23:00:00 13.5 9 Sur 23 Sur 0 -- -- 82
2020-05-03 22:00:00 14.6 18 Sur 27 Sur 0 -- -- 78
2020-05-03 21:00:00 16.4 22 Sur 31 Sur 0 -- -- 72
2020-05-03 20:00:00 19.5 19 Sur 30 Sur 0 -- -- 61
2020-05-03 19:00:00 22 18 Sudeste 30 Sur 0 -- -- 52
2020-05-03 18:00:00 23.6 17 Sur 31 Sudoeste 0 -- -- 41
2020-05-03 17:00:00 23.8 21 Sudoeste 35 Sudoeste 0 -- -- 28
2020-05-03 16:00:00 23.1 24 Sudoeste 34 Sudoeste 0 -- -- 30
2020-05-03 15:00:00 22.6 23 Sudoeste 33 Sudoeste 0 -- -- 30
2020-05-03 14:00:00 21.7 16 Sudoeste 28 Sudoeste 0 -- -- 36
2020-05-03 13:00:00 20.8 16 Sudoeste 29 Sudoeste 0 -- -- 35
2020-05-03 12:00:00 19.9 18 Sudoeste 28 Sudoeste 0 -- -- 35
2020-05-03 11:00:00 18.7 13 Sur 23 Sur 0 -- -- 51
2020-05-03 10:00:00 16.9 11 Sur 16 Sur 0 -- -- 63
2020-05-03 09:00:00 10.8 0 Calma 8 Este 0 -- -- 85
2020-05-03 08:00:00 7.6 4 Nordeste 8 Este 0 -- -- 92
2020-05-03 07:00:00 6.4 5 Este 9 Este 0 -- -- 92
2020-05-03 06:00:00 6.6 0 Calma 9 Este 0 -- -- 94
2020-05-03 05:00:00 7.5 0 Calma 5 Este 0 -- -- 92
2020-05-03 04:00:00 8.1 2 Este 4 Este 0 -- -- 90
2020-05-03 03:00:00 8.3 2 Nordeste 11 Este 0 -- -- 88
2020-05-03 02:00:00 9.1 6 Este 10 Este 0 -- -- 85
2020-05-03 01:00:00 10.7 7 Este 10 Este 0 -- -- 78
2020-05-03 00:00:00 11.9 6 Este 10 Este 0 -- -- 72